Time;durP1;ratioP1;P1;durP2;ratioP2;P2;SDS_P1;SDS_P2;PMS_P1;PMS_P2;Temp;Humidity;BMP_temperature;BMP_pressure;BME280_temperature;BME280_humidity;BME280_pressure;Samples;Min_cycle;Max_cycle;Signal;HPM_P1;HPM_P2
2021/04/09 00:00:43;;;;;;;11.27;5.80;;;6.80;98.60;;;;;;5053128;28;20021;-75
2021/04/09 00:03:09;;;;;;;8.07;4.60;;;6.90;98.30;;;;;;5070304;28;20023;-75
2021/04/09 00:05:35;;;;;;;7.68;4.47;;;6.80;98.60;;;;;;5072591;28;20036;-75
2021/04/09 00:08:01;;;;;;;6.82;4.25;;;6.80;98.70;;;;;;5072875;28;20604;-75
2021/04/09 00:10:29;;;;;;;8.50;4.82;;;6.60;99.20;;;;;;5072775;28;20035;-75
2021/04/09 00:12:56;;;;;;;8.48;4.40;;;6.40;99.90;;;;;;5072833;28;20074;-75
2021/04/09 00:15:22;;;;;;;7.32;4.53;;;6.40;99.90;;;;;;5072528;28;20024;-75
2021/04/09 00:17:48;;;;;;;5.38;4.35;;;6.20;99.90;;;;;;5072520;28;20029;-75
2021/04/09 00:20:17;;;;;;;16.05;6.35;;;5.90;99.90;;;;;;5072471;28;20388;-75
2021/04/09 00:22:43;;;;;;;9.95;4.55;;;6.20;99.90;;;;;;5072205;28;20503;-75
2021/04/09 00:25:10;;;;;;;11.27;4.65;;;6.30;99.90;;;;;;5072582;28;20024;-75
2021/04/09 00:27:36;;;;;;;13.95;4.60;;;6.30;99.90;;;;;;5071178;28;20049;-75
2021/04/09 00:30:05;;;;;;;6.88;4.32;;;6.40;99.90;;;;;;5072389;28;20434;-75
2021/04/09 00:32:30;;;;;;;6.85;4.43;;;6.40;99.90;;;;;;5072373;28;20074;-75
2021/04/09 00:34:56;;;;;;;8.05;4.95;;;6.30;99.90;;;;;;5072501;28;20052;-75
2021/04/09 00:37:22;;;;;;;6.45;5.13;;;6.40;99.90;;;;;;5072309;28;20447;-75
2021/04/09 00:39:47;;;;;;;8.00;3.97;;;6.40;99.90;;;;;;5071660;28;20036;-74
2021/04/09 00:42:20;;;;;;;7.03;4.03;;;6.20;99.60;;;;;;5072430;28;20036;-75
2021/04/09 00:44:47;;;;;;;6.78;4.10;;;6.20;99.90;;;;;;5072072;28;20625;-75
2021/04/09 00:47:14;;;;;;;7.40;4.22;;;6.10;99.90;;;;;;5072117;28;20495;-75
2021/04/09 00:49:40;;;;;;;8.48;4.55;;;6.10;99.90;;;;;;5071886;28;20440;-75
2021/04/09 00:52:06;;;;;;;10.02;3.85;;;6.10;99.90;;;;;;5072340;28;20107;-75
2021/04/09 00:54:33;;;;;;;10.38;4.22;;;6.10;99.90;;;;;;5071695;28;20158;-75
2021/04/09 00:57:01;;;;;;;8.00;5.05;;;6.10;99.90;;;;;;5072364;28;20423;-75
2021/04/09 00:59:28;;;;;;;6.88;4.50;;;6.10;99.90;;;;;;5071377;28;20066;-75
2021/04/09 01:01:54;;;;;;;7.78;4.40;;;6.10;99.90;;;;;;5071281;28;20021;-75
2021/04/09 01:04:20;;;;;;;9.60;4.05;;;6.10;99.90;;;;;;5072215;28;20473;-75
2021/04/09 01:06:46;;;;;;;9.15;5.13;;;6.00;99.90;;;;;;5061918;28;20029;-75
2021/04/09 01:09:12;;;;;;;7.93;4.70;;;5.90;99.90;;;;;;5065186;28;20067;-75
2021/04/09 01:11:38;;;;;;;8.25;4.88;;;5.80;99.90;;;;;;5054961;28;20033;-75
2021/04/09 01:14:03;;;;;;;8.95;4.75;;;5.90;99.90;;;;;;5068049;28;20025;-75
2021/04/09 01:16:41;;;;;;;9.55;4.70;;;5.70;99.90;;;;;;5059381;28;20060;-75
2021/04/09 01:19:32;;;;;;;10.02;4.32;;;5.90;99.90;;;;;;5059314;28;20489;-74
2021/04/09 01:22:06;;;;;;;12.30;5.13;;;5.90;99.90;;;;;;5068162;28;20468;-75
2021/04/09 01:24:53;;;;;;;8.30;5.13;;;6.00;99.90;;;;;;5052072;28;20119;-75
2021/04/09 01:27:51;;;;;;;7.10;4.90;;;5.50;99.90;;;;;;5065600;28;20443;-75
2021/04/09 01:30:52;;;;;;;8.70;5.50;;;5.50;99.90;;;;;;5052296;28;20033;-74
2021/04/09 01:33:20;;;;;;;6.53;4.45;;;5.70;99.90;;;;;;5065458;28;20032;-75
2021/04/09 01:35:47;;;;;;;6.47;4.55;;;5.70;99.90;;;;;;5054998;28;20033;-75
2021/04/09 01:38:17;;;;;;;6.30;4.60;;;5.80;99.90;;;;;;5066944;28;20032;-75
2021/04/09 01:40:46;;;;;;;8.02;6.45;;;5.70;99.90;;;;;;5060090;28;20384;-75
2021/04/09 01:43:17;;;;;;;17.93;6.80;;;5.60;99.90;;;;;;5067033;28;20065;-75
2021/04/09 01:45:43;;;;;;;9.57;5.60;;;5.70;99.90;;;;;;5059717;28;20070;-75
2021/04/09 01:48:11;;;;;;;10.95;5.00;;;5.90;99.90;;;;;;5067524;28;20092;-75
2021/04/09 01:50:37;;;;;;;14.52;5.60;;;6.20;99.90;;;;;;5059686;28;20025;-74
2021/04/09 01:53:05;;;;;;;10.20;5.28;;;6.20;99.90;;;;;;5061656;28;21130;-75
2021/04/09 01:55:35;;;;;;;6.93;4.60;;;5.90;97.60;;;;;;5063296;28;20113;-75
2021/04/09 01:58:02;;;;;;;8.43;4.50;;;5.00;99.90;;;;;;5062108;28;20021;-74
2021/04/09 02:00:30;;;;;;;7.63;4.35;;;4.70;99.90;;;;;;5063099;28;20021;-74
2021/04/09 02:02:58;;;;;;;6.50;4.43;;;4.80;99.90;;;;;;5061255;28;20021;-75
2021/04/09 02:05:27;;;;;;;7.68;4.10;;;4.90;99.90;;;;;;5059545;28;20392;-74
2021/04/09 02:07:56;;;;;;;9.43;4.47;;;5.10;99.90;;;;;;5059552;28;20104;-75
2021/04/09 02:10:23;;;;;;;6.50;4.30;;;5.20;99.90;;;;;;5062969;28;20035;-75
2021/04/09 02:12:49;;;;;;;8.60;3.90;;;5.40;99.90;;;;;;5065784;28;20391;-75
2021/04/09 02:15:19;;;;;;;7.60;4.75;;;5.40;99.90;;;;;;5066368;28;20092;-75
2021/04/09 02:17:45;;;;;;;11.18;5.00;;;5.30;99.90;;;;;;5066595;28;20024;-75
2021/04/09 02:20:22;;;;;;;6.80;4.53;;;5.00;99.90;;;;;;5063407;28;20039;-74
2021/04/09 02:22:49;;;;;;;6.93;4.63;;;4.70;99.90;;;;;;5069098;28;20028;-75
2021/04/09 02:25:18;;;;;;;6.03;4.40;;;4.70;99.90;;;;;;5065915;28;20095;-75
2021/04/09 02:27:44;;;;;;;5.47;4.72;;;4.80;99.90;;;;;;5066289;28;20041;-75
2021/04/09 02:30:12;;;;;;;9.80;5.32;;;4.90;99.90;;;;;;5063519;28;20020;-75
2021/04/09 02:32:38;;;;;;;9.98;4.43;;;5.00;99.90;;;;;;5062883;28;20025;-75
2021/04/09 02:35:07;;;;;;;10.18;4.78;;;5.20;99.90;;;;;;5063660;28;20531;-75
2021/04/09 02:37:33;;;;;;;10.18;5.07;;;4.90;99.90;;;;;;5065812;28;20034;-75
2021/04/09 02:40:07;;;;;;;10.13;5.32;;;4.70;99.90;;;;;;5065270;28;20025;-74
2021/04/09 02:42:33;;;;;;;7.43;5.22;;;4.40;99.90;;;;;;5062595;28;20123;-75
2021/04/09 02:44:59;;;;;;;7.20;5.28;;;4.50;99.90;;;;;;5062531;28;20028;-74
2021/04/09 02:47:28;;;;;;;9.00;5.13;;;4.90;99.90;;;;;;5065739;28;20017;-75
2021/04/09 02:50:11;;;;;;;7.90;5.35;;;5.10;99.90;;;;;;5065986;28;20430;-75
2021/04/09 02:53:00;;;;;;;8.13;5.95;;;4.80;99.90;;;;;;5059445;28;20052;-75
2021/04/09 02:55:34;;;;;;;7.78;5.65;;;5.00;99.90;;;;;;5051394;28;20043;-75
2021/04/09 02:58:04;;;;;;;8.05;5.13;;;5.10;99.90;;;;;;5063384;28;20102;-75
2021/04/09 03:00:30;;;;;;;8.07;4.82;;;5.10;99.90;;;;;;5065909;28;20116;-74
2021/04/09 03:02:59;;;;;;;11.05;4.57;;;5.10;99.90;;;;;;5065722;28;20048;-75
2021/04/09 03:05:25;;;;;;;7.38;4.55;;;5.70;99.90;;;;;;5061758;28;20086;-75
2021/04/09 03:07:51;;;;;;;10.70;5.78;;;5.80;99.90;;;;;;5062465;28;20426;-75
2021/04/09 03:10:18;;;;;;;7.03;5.43;;;5.50;99.90;;;;;;5063594;28;20036;-75
2021/04/09 03:12:45;;;;;;;8.10;4.22;;;5.30;99.90;;;;;;5065169;28;20077;-74
2021/04/09 03:15:20;;;;;;;11.40;4.93;;;5.30;99.90;;;;;;5064525;28;20027;-75
2021/04/09 03:18:05;;;;;;;6.25;4.25;;;5.30;99.90;;;;;;5062137;28;20481;-75
2021/04/09 03:20:31;;;;;;;5.88;4.57;;;5.00;99.90;;;;;;5068144;28;20385;-75
2021/04/09 03:22:57;;;;;;;7.43;4.85;;;5.20;99.90;;;;;;5067366;28;20031;-75
2021/04/09 03:25:22;;;;;;;10.63;5.00;;;5.40;99.90;;;;;;5062976;28;20032;-75
2021/04/09 03:27:48;;;;;;;7.45;4.32;;;5.50;99.90;;;;;;5061854;28;20561;-75
2021/04/09 03:30:19;;;;;;;6.07;3.95;;;5.70;99.90;;;;;;5062229;28;20149;-75
2021/04/09 03:32:46;;;;;;;6.88;4.53;;;5.90;99.90;;;;;;5065142;28;20028;-75
2021/04/09 03:35:12;;;;;;;5.18;4.10;;;5.90;99.90;;;;;;5064379;28;20078;-75
2021/04/09 03:37:38;;;;;;;6.97;4.50;;;5.60;99.90;;;;;;5060454;28;20428;-75
2021/04/09 03:40:05;;;;;;;7.72;4.55;;;5.30;99.90;;;;;;5061380;28;20017;-75
2021/04/09 03:42:31;;;;;;;7.68;3.83;;;5.20;99.90;;;;;;5063849;28;20051;-75
2021/04/09 03:44:57;;;;;;;11.45;4.85;;;5.30;99.90;;;;;;5064848;28;20472;-75
2021/04/09 03:47:22;;;;;;;10.82;4.15;;;5.50;99.90;;;;;;5063278;28;20534;-75
2021/04/09 03:49:48;;;;;;;11.75;3.50;;;5.80;99.90;;;;;;5061228;28;20025;-75
2021/04/09 03:52:14;;;;;;;10.77;3.78;;;6.30;99.90;;;;;;5066333;28;20077;-75
2021/04/09 03:54:40;;;;;;;7.85;3.92;;;6.60;99.90;;;;;;5071744;28;20020;-75
2021/04/09 03:57:06;;;;;;;4.68;2.35;;;6.70;99.90;;;;;;5063064;28;20093;-75
2021/04/09 03:59:31;;;;;;;8.00;4.07;;;6.90;99.70;;;;;;5062648;28;20504;-75
2021/04/09 04:01:57;;;;;;;6.82;3.13;;;6.90;99.50;;;;;;5076223;28;20026;-75
2021/04/09 04:04:24;;;;;;;10.02;3.53;;;6.90;99.90;;;;;;5066508;28;20388;-75
2021/04/09 04:06:51;;;;;;;9.82;3.35;;;7.00;99.90;;;;;;5073197;28;20086;-75
2021/04/09 04:09:17;;;;;;;7.10;3.33;;;7.00;99.90;;;;;;5071141;28;20033;-75
2021/04/09 04:11:43;;;;;;;6.35;2.67;;;7.00;99.70;;;;;;5061660;28;20029;-75
2021/04/09 04:14:09;;;;;;;4.60;3.22;;;7.00;99.10;;;;;;5067246;28;20021;-75
2021/04/09 04:16:34;;;;;;;7.07;3.03;;;7.00;99.20;;;;;;5072011;28;20035;-75
2021/04/09 04:19:00;;;;;;;12.10;3.40;;;7.00;99.30;;;;;;5072397;28;20024;-75
2021/04/09 04:21:30;;;;;;;8.45;3.35;;;6.90;98.70;;;;;;5063631;28;20029;-75
2021/04/09 04:23:55;;;;;;;4.40;2.92;;;7.00;98.30;;;;;;5064005;28;20052;-75
2021/04/09 04:26:21;;;;;;;6.65;3.35;;;7.00;97.90;;;;;;5071590;28;20493;-75
2021/04/09 04:28:47;;;;;;;8.63;3.20;;;7.00;98.00;;;;;;5072938;28;20031;-75
2021/04/09 04:31:13;;;;;;;7.72;3.30;;;7.00;98.10;;;;;;5076522;28;20043;-75
2021/04/09 04:33:39;;;;;;;7.97;3.92;;;7.00;98.00;;;;;;5065706;28;20521;-75
2021/04/09 04:36:05;;;;;;;6.13;2.92;;;7.00;97.90;;;;;;5071067;28;20111;-75
2021/04/09 04:38:31;;;;;;;6.22;3.10;;;7.00;98.70;;;;;;5072068;28;20024;-75
2021/04/09 04:40:58;;;;;;;6.70;3.13;;;6.90;98.70;;;;;;5071834;28;20496;-75
2021/04/09 04:43:24;;;;;;;6.85;2.95;;;6.90;99.10;;;;;;5072299;28;20031;-75
2021/04/09 04:45:50;;;;;;;10.60;2.92;;;6.90;99.60;;;;;;5071462;28;20395;-75
2021/04/09 04:48:16;;;;;;;6.88;2.88;;;6.90;99.40;;;;;;5072288;28;20029;-75
2021/04/09 04:50:42;;;;;;;7.43;2.50;;;6.90;99.60;;;;;;5072294;28;20500;-75
2021/04/09 04:53:08;;;;;;;7.05;2.88;;;6.90;99.80;;;;;;5064027;28;20396;-75
2021/04/09 04:55:34;;;;;;;7.35;2.38;;;6.80;99.90;;;;;;5067133;28;20036;-75
2021/04/09 04:58:00;;;;;;;6.55;2.58;;;6.80;99.90;;;;;;5063081;28;20037;-75
2021/04/09 05:00:26;;;;;;;8.35;3.00;;;6.80;99.90;;;;;;5055384;28;20021;-75
2021/04/09 05:02:52;;;;;;;6.82;2.65;;;6.80;99.90;;;;;;5055161;28;20077;-75
2021/04/09 05:05:18;;;;;;;10.50;2.70;;;6.80;99.90;;;;;;5057771;28;20020;-75
2021/04/09 05:07:44;;;;;;;9.98;3.03;;;6.80;99.90;;;;;;5069975;28;20036;-75
2021/04/09 05:10:11;;;;;;;7.63;2.55;;;6.90;99.90;;;;;;5070239;28;20531;-75
2021/04/09 05:12:37;;;;;;;7.10;3.20;;;6.90;99.90;;;;;;5067573;28;20103;-75
2021/04/09 05:15:04;;;;;;;9.25;2.83;;;7.00;99.30;;;;;;5068528;28;20480;-75
2021/04/09 05:17:30;;;;;;;8.18;2.72;;;6.90;99.70;;;;;;5058049;28;20115;-75
2021/04/09 05:19:56;;;;;;;6.57;2.63;;;6.90;99.90;;;;;;5069818;28;20146;-75
2021/04/09 05:22:22;;;;;;;5.38;3.00;;;6.90;99.70;;;;;;5067861;28;20058;-75
2021/04/09 05:24:48;;;;;;;6.80;3.03;;;6.90;99.20;;;;;;5066581;28;20021;-75
2021/04/09 05:27:14;;;;;;;6.22;2.72;;;7.00;98.70;;;;;;5055824;28;20086;-75
2021/04/09 05:29:40;;;;;;;6.32;2.83;;;7.00;98.30;;;;;;5061470;28;20037;-75
2021/04/09 05:32:07;;;;;;;6.97;2.75;;;7.00;98.20;;;;;;5062213;28;20040;-75
2021/04/09 05:34:33;;;;;;;6.78;2.97;;;7.10;98.10;;;;;;5069854;28;20020;-75
2021/04/09 05:36:59;;;;;;;7.18;3.78;;;7.10;97.90;;;;;;5069726;28;20159;-75
2021/04/09 05:39:25;;;;;;;5.50;3.08;;;7.10;97.70;;;;;;5069843;28;20116;-75
2021/04/09 05:41:51;;;;;;;7.05;4.32;;;7.10;97.30;;;;;;5069579;28;20012;-75
2021/04/09 05:44:18;;;;;;;6.40;3.30;;;7.20;97.50;;;;;;5069608;28;20027;-75
2021/04/09 05:46:43;;;;;;;10.40;3.10;;;7.10;97.30;;;;;;5056177;28;20025;-75
2021/04/09 05:49:09;;;;;;;5.63;3.33;;;7.10;97.60;;;;;;5075425;28;20441;-75
2021/04/09 05:51:36;;;;;;;8.10;2.75;;;7.10;98.10;;;;;;5075480;28;20044;-75
2021/04/09 05:54:02;;;;;;;6.15;3.28;;;7.20;97.80;;;;;;5064092;28;20032;-75
2021/04/09 05:56:28;;;;;;;7.63;3.13;;;7.20;97.60;;;;;;5072523;28;20404;-75
2021/04/09 05:58:54;;;;;;;12.55;3.22;;;7.20;97.10;;;;;;5089738;28;20024;-75
2021/04/09 06:01:20;;;;;;;4.72;2.88;;;7.30;96.90;;;;;;5077928;28;20491;-75
2021/04/09 06:03:47;;;;;;;8.95;3.20;;;7.30;97.20;;;;;;5086813;28;20029;-75
2021/04/09 06:06:13;;;;;;;7.63;2.67;;;7.30;97.40;;;;;;5075269;28;20016;-75
2021/04/09 06:08:39;;;;;;;8.95;3.42;;;7.40;96.90;;;;;;5066966;28;20104;-75
2021/04/09 06:11:07;;;;;;;6.85;2.50;;;7.40;96.70;;;;;;5054734;28;20108;-75
2021/04/09 06:13:32;;;;;;;4.38;2.75;;;7.60;95.90;;;;;;5059991;28;20024;-75
2021/04/09 06:15:58;;;;;;;6.57;3.20;;;7.60;95.50;;;;;;5072810;28;20365;-75
2021/04/09 06:18:25;;;;;;;7.07;3.15;;;7.70;95.20;;;;;;5063843;28;20033;-76
2021/04/09 06:20:51;;;;;;;4.07;2.75;;;7.80;95.00;;;;;;5054830;28;20877;-76
2021/04/09 06:23:17;;;;;;;8.23;2.83;;;7.80;94.70;;;;;;5067275;28;20043;-76
2021/04/09 06:25:42;;;;;;;5.80;3.00;;;7.90;94.80;;;;;;5066411;28;20039;-76
2021/04/09 06:28:09;;;;;;;6.10;2.78;;;8.00;93.80;;;;;;5063537;28;20041;-77
2021/04/09 06:30:35;;;;;;;8.93;2.80;;;8.10;94.80;;;;;;5070451;28;20036;-77
2021/04/09 06:33:01;;;;;;;2.40;2.15;;;8.20;94.70;;;;;;5063929;28;20020;-77
2021/04/09 06:35:27;;;;;;;7.22;2.35;;;8.20;94.20;;;;;;5075397;28;20037;-77
2021/04/09 06:37:53;;;;;;;4.88;2.97;;;8.30;94.60;;;;;;5059762;28;20037;-77
2021/04/09 06:40:21;;;;;;;4.63;2.67;;;8.40;94.20;;;;;;5055379;28;20099;-77
2021/04/09 06:42:47;;;;;;;6.60;3.15;;;8.40;94.30;;;;;;5054980;28;20350;-76
2021/04/09 06:45:14;;;;;;;6.85;2.60;;;8.50;94.40;;;;;;5055431;28;20027;-77
2021/04/09 06:47:40;;;;;;;9.65;4.60;;;8.60;95.10;;;;;;5055299;28;20041;-77
2021/04/09 06:50:06;;;;;;;8.38;2.40;;;8.60;95.00;;;;;;5057161;28;20136;-75
2021/04/09 06:52:32;;;;;;;11.98;2.97;;;8.60;95.00;;;;;;5065273;28;20029;-75
2021/04/09 06:55:00;;;;;;;4.05;2.20;;;8.60;95.30;;;;;;5070334;28;20031;-75
2021/04/09 06:57:28;;;;;;;10.23;2.55;;;8.70;95.40;;;;;;5058849;28;20062;-74
2021/04/09 06:59:57;;;;;;;7.05;2.20;;;8.70;94.50;;;;;;5070310;28;20078;-75
2021/04/09 07:02:23;;;;;;;7.75;2.50;;;8.70;95.10;;;;;;5064231;28;20441;-75
2021/04/09 07:04:49;;;;;;;6.43;2.20;;;8.80;95.40;;;;;;5058165;28;20026;-75
2021/04/09 07:07:17;;;;;;;4.05;2.30;;;8.80;94.50;;;;;;5067954;28;20071;-75
2021/04/09 07:09:47;;;;;;;8.20;2.42;;;8.90;94.80;;;;;;5060583;28;20129;-75
2021/04/09 07:12:27;;;;;;;5.38;2.67;;;8.90;94.50;;;;;;5069035;28;20089;-75
2021/04/09 07:14:58;;;;;;;5.22;2.13;;;9.10;93.90;;;;;;5067216;28;20020;-75
2021/04/09 07:17:26;;;;;;;6.07;2.67;;;9.20;93.50;;;;;;5059879;28;20039;-75
2021/04/09 07:20:05;;;;;;;6.55;2.55;;;9.40;92.90;;;;;;5072203;28;20070;-75
2021/04/09 07:22:31;;;;;;;5.22;2.15;;;9.40;93.20;;;;;;5071149;28;20060;-75
2021/04/09 07:25:24;;;;;;;6.85;2.22;;;9.40;93.00;;;;;;5066931;28;20051;-75
2021/04/09 07:28:16;;;;;;;8.90;3.13;;;9.40;93.10;;;;;;5054541;28;20040;-75
2021/04/09 07:30:50;;;;;;;4.80;2.03;;;9.50;91.70;;;;;;5066239;28;20093;-75
2021/04/09 07:33:39;;;;;;;7.35;2.42;;;9.40;91.90;;;;;;5064646;28;20384;-75
2021/04/09 07:36:10;;;;;;;4.60;2.42;;;9.50;91.90;;;;;;5056527;28;20036;-75
2021/04/09 07:38:36;;;;;;;8.77;2.60;;;9.60;92.20;;;;;;5065114;28;20542;-75
2021/04/09 07:41:05;;;;;;;6.32;2.20;;;9.60;91.80;;;;;;5064156;28;20032;-75
2021/04/09 07:43:32;;;;;;;6.85;3.00;;;9.50;91.90;;;;;;5062902;28;20028;-75
2021/04/09 07:46:00;;;;;;;4.97;2.38;;;9.60;92.20;;;;;;5068215;28;20043;-75
2021/04/09 07:48:39;;;;;;;4.93;2.83;;;9.70;91.90;;;;;;5067771;28;20031;-75
2021/04/09 07:51:06;;;;;;;9.95;2.53;;;10.10;91.60;;;;;;5060966;28;20523;-75
2021/04/09 07:53:32;;;;;;;9.80;3.00;;;10.30;90.60;;;;;;5066203;28;20071;-75
2021/04/09 07:56:11;;;;;;;8.20;2.22;;;10.50;90.40;;;;;;5056659;28;20060;-75
2021/04/09 07:58:39;;;;;;;7.38;2.80;;;10.80;89.80;;;;;;5061224;28;20037;-75
2021/04/09 08:01:23;;;;;;;7.13;2.25;;;11.30;86.30;;;;;;5052896;28;20029;-75
2021/04/09 08:03:49;;;;;;;11.95;3.17;;;11.70;86.50;;;;;;5055968;28;20043;-75
2021/04/09 08:06:20;;;;;;;9.80;3.80;;;11.90;83.30;;;;;;5065925;28;20031;-74
2021/04/09 08:08:46;;;;;;;9.02;2.60;;;11.70;83.50;;;;;;5061298;28;20437;-75
2021/04/09 08:11:36;;;;;;;11.02;3.90;;;11.50;84.10;;;;;;5060814;28;20112;-75
2021/04/09 08:14:07;;;;;;;12.65;3.28;;;11.60;83.50;;;;;;5064902;28;20035;-75
2021/04/09 08:16:39;;;;;;;37.70;4.68;;;11.50;83.10;;;;;;5067727;28;20031;-75
2021/04/09 08:19:13;;;;;;;20.23;3.47;;;11.30;84.30;;;;;;5069303;28;20086;-75
2021/04/09 08:21:41;;;;;;;4.88;2.60;;;11.10;83.70;;;;;;5071095;28;20035;-74
2021/04/09 08:24:09;;;;;;;5.13;1.90;;;11.10;86.00;;;;;;5071098;28;20055;-75
2021/04/09 08:26:36;;;;;;;5.97;2.40;;;11.20;85.70;;;;;;5070545;28;20017;-75
2021/04/09 08:29:04;;;;;;;5.00;2.10;;;11.40;85.00;;;;;;5070906;28;20025;-75
2021/04/09 08:31:31;;;;;;;5.35;1.98;;;11.50;83.10;;;;;;5065199;28;20541;-74
2021/04/09 08:33:58;;;;;;;6.38;2.30;;;11.80;84.00;;;;;;5057926;28;20028;-75
2021/04/09 08:36:25;;;;;;;14.02;2.63;;;12.10;81.30;;;;;;5067373;28;20108;-75
2021/04/09 08:38:54;;;;;;;5.40;1.90;;;12.10;79.80;;;;;;5059715;28;20578;-75
2021/04/09 08:41:20;;;;;;;12.05;2.10;;;12.10;79.80;;;;;;5071732;28;20035;-74
2021/04/09 08:43:46;;;;;;;9.13;2.08;;;12.50;80.90;;;;;;5069295;28;20024;-75
2021/04/09 08:46:12;;;;;;;5.93;1.95;;;12.80;77.30;;;;;;5069280;28;20551;-75
2021/04/09 08:48:39;;;;;;;7.32;2.60;;;13.30;76.50;;;;;;5065474;28;20104;-75
2021/04/09 08:51:08;;;;;;;7.75;2.40;;;13.40;74.70;;;;;;5070399;28;20037;-75
2021/04/09 08:53:34;;;;;;;4.57;1.80;;;14.00;74.10;;;;;;5071387;28;20124;-75
2021/04/09 08:56:00;;;;;;;8.10;3.22;;;14.30;75.10;;;;;;5071868;28;20472;-75
2021/04/09 08:58:26;;;;;;;7.22;2.35;;;14.20;72.10;;;;;;5072039;28;20063;-75
2021/04/09 09:00:54;;;;;;;3.15;2.13;;;14.50;71.60;;;;;;5067704;28;20060;-75
2021/04/09 09:03:31;;;;;;;6.70;2.20;;;14.60;70.40;;;;;;5064901;28;20075;-75
2021/04/09 09:05:58;;;;;;;16.85;2.88;;;14.70;69.50;;;;;;5065927;28;20032;-74
2021/04/09 09:08:43;;;;;;;10.48;2.92;;;15.30;69.70;;;;;;5065463;28;20389;-75
2021/04/09 09:11:14;;;;;;;5.43;2.72;;;16.70;65.30;;;;;;5068651;28;20028;-75
2021/04/09 09:13:44;;;;;;;5.50;2.70;;;18.20;58.70;;;;;;5071877;28;20032;-75
2021/04/09 09:16:20;;;;;;;6.32;3.13;;;18.40;58.40;;;;;;5072052;28;20032;-75
2021/04/09 09:18:48;;;;;;;3.83;2.17;;;19.10;56.50;;;;;;5071485;28;20032;-75
2021/04/09 09:21:14;;;;;;;9.48;2.45;;;18.90;56.50;;;;;;5072866;28;20051;-75
2021/04/09 09:23:45;;;;;;;5.63;2.60;;;19.40;55.90;;;;;;5074347;28;20468;-75
2021/04/09 09:26:32;;;;;;;7.18;2.40;;;19.50;53.80;;;;;;5076056;28;20035;-75
2021/04/09 09:29:27;;;;;;;11.80;2.35;;;19.80;53.30;;;;;;5069389;28;20041;-75
2021/04/09 09:32:09;;;;;;;7.38;2.63;;;20.50;52.40;;;;;;5065397;28;20424;-75
2021/04/09 09:34:41;;;;;;;5.35;2.78;;;20.50;51.50;;;;;;5075624;28;20028;-75
2021/04/09 09:37:15;;;;;;;23.45;4.03;;;20.60;53.10;;;;;;5073915;28;20032;-75
2021/04/09 09:39:49;;;;;;;8.25;3.22;;;20.00;52.70;;;;;;5072995;28;20043;-75
2021/04/09 09:42:21;;;;;;;5.65;2.72;;;20.50;50.80;;;;;;5075145;28;20534;-75
2021/04/09 09:44:49;;;;;;;8.45;2.35;;;20.10;53.90;;;;;;5078089;28;20020;-75
2021/04/09 09:47:18;;;;;;;4.80;2.63;;;18.50;54.80;;;;;;5074829;28;20078;-75
2021/04/09 09:52:47;;;;;;;8.30;3.25;;;18.50;55.70;;;;;;5074647;28;20027;-75
2021/04/09 09:55:26;;;;;;;5.10;2.45;;;19.80;52.00;;;;;;5069398;28;20037;-73
2021/04/09 09:58:10;;;;;;;3.58;2.35;;;20.80;51.60;;;;;;5075516;28;20009;-73
2021/04/09 10:00:44;;;;;;;5.60;2.28;;;20.60;51.10;;;;;;5074799;28;20021;-73
2021/04/09 10:03:21;;;;;;;10.60;2.53;;;20.80;51.50;;;;;;5075981;28;20028;-73
2021/04/09 10:05:50;;;;;;;7.95;2.55;;;21.10;50.80;;;;;;5075136;28;20392;-73
2021/04/09 10:08:18;;;;;;;5.88;2.50;;;22.90;47.20;;;;;;5061699;28;20025;-73
2021/04/09 10:11:02;;;;;;;6.40;2.58;;;23.60;44.90;;;;;;5075281;28;20020;-73
2021/04/09 10:13:35;;;;;;;3.72;2.38;;;23.20;46.10;;;;;;5071462;28;20214;-73
2021/04/09 10:16:17;;;;;;;3.05;2.22;;;22.20;48.10;;;;;;5071077;28;20025;-73
2021/04/09 10:18:51;;;;;;;8.52;2.38;;;22.80;46.20;;;;;;5072087;28;20043;-73
2021/04/09 10:21:28;;;;;;;7.75;2.92;;;22.70;45.60;;;;;;5071734;28;20039;-73
2021/04/09 10:24:11;;;;;;;6.45;2.72;;;22.30;47.70;;;;;;5069529;28;20021;-75
2021/04/09 10:26:49;;;;;;;4.70;2.20;;;22.30;47.70;;;;;;5068329;28;20060;-74
2021/04/09 10:29:41;;;;;;;14.48;2.60;;;22.10;48.60;;;;;;5073107;28;20051;-74
2021/04/09 10:32:27;;;;;;;6.38;2.65;;;21.50;48.40;;;;;;5067360;28;20024;-74
2021/04/09 10:34:53;;;;;;;4.05;2.60;;;22.30;48.30;;;;;;5061355;28;20078;-74
2021/04/09 10:37:24;;;;;;;3.75;2.30;;;22.20;47.40;;;;;;5067183;28;20504;-74
2021/04/09 10:39:51;;;;;;;4.85;2.50;;;22.60;47.80;;;;;;5070191;28;20036;-74
2021/04/09 10:42:17;;;;;;;8.90;3.08;;;22.20;46.60;;;;;;5070681;28;20035;-76
2021/04/09 10:44:44;;;;;;;4.88;2.35;;;22.00;47.00;;;;;;5063946;28;20067;-74
2021/04/09 10:47:11;;;;;;;5.15;2.17;;;22.10;49.00;;;;;;5055682;28;20036;-74
2021/04/09 10:49:41;;;;;;;4.88;2.45;;;22.30;47.10;;;;;;5061872;28;20035;-74
2021/04/09 10:52:07;;;;;;;;;;;23.00;47.40;;;;;;5054547;28;20037;-74
2021/04/09 10:54:36;;;;;;;5.82;2.80;;;23.20;44.40;;;;;;5060878;28;19905;-75
2021/04/09 10:57:07;;;;;;;4.88;3.10;;;23.40;44.50;;;;;;5065495;28;20039;-74
2021/04/09 10:59:41;;;;;;;6.32;2.47;;;25.20;43.30;;;;;;5060285;28;20035;-75
2021/04/09 11:02:10;;;;;;;6.07;2.60;;;25.20;43.20;;;;;;5062599;28;20024;-76
2021/04/09 11:04:38;;;;;;;5.25;3.20;;;26.20;41.30;;;;;;5066589;28;20028;-77
2021/04/09 11:07:06;;;;;;;4.63;2.70;;;26.20;40.50;;;;;;5068266;28;20033;-76
2021/04/09 11:09:45;;;;;;;8.52;2.60;;;27.40;40.90;;;;;;5060896;28;20112;-75
2021/04/09 11:12:24;;;;;;;16.47;3.87;;;28.40;37.70;;;;;;5063940;28;20032;-75
2021/04/09 11:15:10;;;;;;;9.80;2.88;;;26.80;38.60;;;;;;5056690;28;20114;-75
2021/04/09 11:17:37;;;;;;;7.47;3.35;;;28.20;38.60;;;;;;5069027;28;20031;-75
2021/04/09 11:20:19;;;;;;;47.65;5.60;;;27.90;37.00;;;;;;5064562;28;20036;-76
2021/04/09 11:22:45;;;;;;;7.45;3.15;;;26.70;38.10;;;;;;5060658;28;20068;-75
2021/04/09 11:25:12;;;;;;;3.15;2.80;;;27.10;39.20;;;;;;5067775;28;20044;-75
2021/04/09 11:27:41;;;;;;;3.10;2.40;;;27.50;40.00;;;;;;5066141;28;20056;-75
2021/04/09 11:30:19;;;;;;;4.65;2.92;;;28.70;37.00;;;;;;5059551;28;20021;-76
2021/04/09 11:32:54;;;;;;;5.00;2.97;;;28.40;38.70;;;;;;5061415;28;20093;-75
2021/04/09 11:35:22;;;;;;;5.18;3.10;;;28.10;36.40;;;;;;5068803;28;20052;-75
2021/04/09 11:37:56;;;;;;;10.52;3.05;;;27.70;39.00;;;;;;5072184;28;20032;-75
2021/04/09 11:40:40;;;;;;;3.15;2.25;;;26.50;38.70;;;;;;5067074;28;20040;-75
2021/04/09 11:43:07;;;;;;;7.80;3.28;;;27.10;39.30;;;;;;5056166;28;20108;-75
2021/04/09 11:45:47;;;;;;;6.55;3.17;;;28.50;38.70;;;;;;5054000;28;20023;-75
2021/04/09 11:48:30;;;;;;;;;;;28.90;36.30;;;;;;5070736;28;20107;-75
2021/04/09 11:51:22;;;;;;;6.50;2.78;;;27.90;37.90;;;;;;5069631;28;19915;-76
2021/04/09 11:54:01;;;;;;;5.57;2.55;;;28.30;38.50;;;;;;5069889;28;20082;-75
2021/04/09 11:56:37;;;;;;;11.10;3.35;;;29.10;36.60;;;;;;5069014;28;20016;-75
2021/04/09 11:59:14;;;;;;;15.23;3.03;;;28.10;37.90;;;;;;5066182;28;20111;-75
2021/04/09 12:01:41;;;;;;;7.38;2.40;;;26.60;38.70;;;;;;5070393;28;20621;-75
2021/04/09 12:04:07;;;;;;;12.15;2.67;;;25.30;39.80;;;;;;5062586;28;20064;-75
2021/04/09 12:06:37;;;;;;;7.25;2.50;;;24.60;41.60;;;;;;5067735;28;20024;-75
2021/04/09 12:09:05;;;;;;;6.95;3.05;;;23.10;42.70;;;;;;5061373;28;20033;-75
2021/04/09 12:11:31;;;;;;;7.70;2.40;;;22.20;45.60;;;;;;5066374;28;20037;-75
2021/04/09 12:13:57;;;;;;;6.35;2.70;;;21.80;45.60;;;;;;5066190;28;20484;-75
2021/04/09 12:16:23;;;;;;;6.32;2.75;;;20.70;46.80;;;;;;5067610;28;20032;-75
2021/04/09 12:18:49;;;;;;;5.57;2.38;;;20.70;48.00;;;;;;5066582;28;20029;-75
2021/04/09 12:21:15;;;;;;;5.85;2.00;;;20.50;49.00;;;;;;5066127;28;20032;-75
2021/04/09 12:23:40;;;;;;;4.72;2.03;;;21.00;48.80;;;;;;5064053;28;20061;-75
2021/04/09 12:26:06;;;;;;;5.25;1.80;;;21.30;47.60;;;;;;5063168;28;20029;-75
2021/04/09 12:28:32;;;;;;;4.15;2.25;;;21.00;47.60;;;;;;5071347;28;20072;-75
2021/04/09 12:30:58;;;;;;;2.42;1.67;;;21.10;47.20;;;;;;5072616;28;20027;-75
2021/04/09 12:33:25;;;;;;;4.55;2.60;;;20.40;48.00;;;;;;5072458;28;20056;-75
2021/04/09 12:35:51;;;;;;;4.00;1.90;;;20.40;48.80;;;;;;5072395;28;20036;-75
2021/04/09 12:38:16;;;;;;;7.63;2.38;;;20.90;47.90;;;;;;5071861;28;20035;-75
2021/04/09 12:40:42;;;;;;;5.95;3.30;;;20.50;47.90;;;;;;5074656;28;20032;-75
2021/04/09 12:43:09;;;;;;;5.75;2.35;;;20.40;49.30;;;;;;5061752;28;20086;-75
2021/04/09 12:45:34;;;;;;;8.27;2.75;;;19.30;49.80;;;;;;5064643;28;20017;-75
2021/04/09 12:48:00;;;;;;;5.45;2.17;;;19.10;51.40;;;;;;5063040;28;20027;-75
2021/04/09 12:50:26;;;;;;;4.90;2.13;;;18.80;51.70;;;;;;5070239;28;20028;-75
2021/04/09 12:52:55;;;;;;;7.72;2.13;;;18.50;52.00;;;;;;5056366;28;20146;-75
2021/04/09 12:55:20;;;;;;;5.95;2.10;;;18.20;53.20;;;;;;5058818;28;20103;-75
2021/04/09 12:57:48;;;;;;;2.38;1.67;;;18.20;53.20;;;;;;5065303;28;20451;-75
2021/04/09 13:00:16;;;;;;;4.53;1.83;;;18.10;53.70;;;;;;5059683;28;20036;-75
2021/04/09 13:02:44;;;;;;;3.30;1.60;;;18.10;54.10;;;;;;5061899;28;20028;-75
2021/04/09 13:05:10;;;;;;;3.97;1.83;;;18.00;54.30;;;;;;5060977;28;20094;-75
2021/04/09 13:07:36;;;;;;;8.30;2.33;;;17.90;54.30;;;;;;5063901;28;20021;-75